createdAt,value
2023-05-23T00:01:10.181Z,13.32
2023-05-23T00:03:37.441Z,14.05
2023-05-23T00:06:06.581Z,12.45
2023-05-23T00:08:33.225Z,12.40
2023-05-23T00:10:59.837Z,13.70
2023-05-23T00:13:26.907Z,13.07
2023-05-23T00:15:53.604Z,12.68
2023-05-23T00:18:20.356Z,12.77
2023-05-23T00:20:47.175Z,11.10
2023-05-23T00:23:18.866Z,11.43
2023-05-23T00:25:48.355Z,13.80
2023-05-23T00:28:15.986Z,13.05
2023-05-23T00:30:42.979Z,10.57
2023-05-23T00:33:09.673Z,13.15
2023-05-23T00:35:36.326Z,11.63
2023-05-23T00:38:03.401Z,13.98
2023-05-23T00:40:30.159Z,15.95
2023-05-23T00:42:56.858Z,12.95
2023-05-23T00:45:23.613Z,13.90
2023-05-23T00:47:51.459Z,12.32
2023-05-23T00:50:18.160Z,12.77
2023-05-23T00:52:45.452Z,16.58
2023-05-23T00:55:12.615Z,12.45
2023-05-23T00:57:40.349Z,16.15
2023-05-23T01:00:09.858Z,12.25
2023-05-23T01:02:43.457Z,13.45
2023-05-23T01:05:11.489Z,14.75
2023-05-23T01:07:38.178Z,13.35
2023-05-23T01:10:05.283Z,14.25
2023-05-23T01:12:46.772Z,13.27
2023-05-23T01:15:15.655Z,13.30
2023-05-23T01:17:59.358Z,15.95
2023-05-23T01:20:31.534Z,13.15
2023-05-23T01:26:18.573Z,14.65
2023-05-23T01:28:47.290Z,15.40
2023-05-23T01:31:14.183Z,13.65
2023-05-23T01:33:41.122Z,13.32
2023-05-23T01:36:07.846Z,12.93
2023-05-23T01:38:34.493Z,15.60
2023-05-23T01:41:01.348Z,13.90
2023-05-23T01:43:27.937Z,13.68
2023-05-23T01:45:54.645Z,13.77
2023-05-23T01:48:21.394Z,14.20
2023-05-23T01:50:48.018Z,11.73
2023-05-23T01:53:16.250Z,12.25
2023-05-23T01:55:42.898Z,15.98
2023-05-23T01:58:09.602Z,17.60
2023-05-23T02:00:36.311Z,12.48
2023-05-23T02:03:03.120Z,12.48
2023-05-23T02:05:30.383Z,13.95
2023-05-23T02:07:57.073Z,14.15
2023-05-23T02:10:23.847Z,13.85
2023-05-23T02:12:50.589Z,19.17
2023-05-23T02:15:17.402Z,16.17
2023-05-23T02:17:44.195Z,15.50
2023-05-23T02:20:11.175Z,15.82
2023-05-23T02:22:38.636Z,14.55
2023-05-23T02:25:06.000Z,15.02
2023-05-23T02:27:32.698Z,13.98
2023-05-23T02:29:59.541Z,15.43
2023-05-23T02:32:26.321Z,13.77
2023-05-23T02:34:55.123Z,19.85
2023-05-23T02:37:23.623Z,16.33
2023-05-23T02:39:50.314Z,15.98
2023-05-23T02:42:16.963Z,14.50
2023-05-23T02:44:44.103Z,14.55
2023-05-23T02:47:10.841Z,17.52
2023-05-23T02:49:37.463Z,15.48
2023-05-23T02:52:04.415Z,15.40
2023-05-23T02:54:31.128Z,16.08
2023-05-23T02:56:58.486Z,22.10
2023-05-23T02:59:26.715Z,14.43
2023-05-23T03:01:53.566Z,15.52
2023-05-23T03:04:21.320Z,17.00
2023-05-23T03:06:48.314Z,19.58
2023-05-23T03:09:16.878Z,17.45
2023-05-23T03:11:43.973Z,15.55
2023-05-23T03:14:10.809Z,18.58
2023-05-23T03:16:37.660Z,14.82
2023-05-23T03:19:04.866Z,15.00
2023-05-23T03:21:32.762Z,18.35
2023-05-23T03:23:59.433Z,16.23
2023-05-23T03:26:26.793Z,18.45
2023-05-23T03:28:53.447Z,20.45
2023-05-23T03:31:20.401Z,17.42
2023-05-23T03:33:47.093Z,16.38
2023-05-23T03:36:13.840Z,16.38
2023-05-23T03:38:40.652Z,18.48
2023-05-23T03:41:07.494Z,17.85
2023-05-23T03:43:34.245Z,17.83
2023-05-23T03:46:01.132Z,18.13
2023-05-23T03:48:27.858Z,16.90
2023-05-23T03:50:54.615Z,19.95
2023-05-23T03:53:21.469Z,17.73
2023-05-23T03:55:48.136Z,17.77
2023-05-23T03:58:15.055Z,19.17
2023-05-23T04:00:41.750Z,22.30
2023-05-23T04:03:10.192Z,17.45
2023-05-23T04:05:36.975Z,22.58
2023-05-23T04:08:03.739Z,16.98
2023-05-23T04:10:30.383Z,22.55
2023-05-23T04:12:57.332Z,16.33
2023-05-23T04:15:24.792Z,18.08
2023-05-23T04:17:51.508Z,20.05
2023-05-23T04:20:18.396Z,18.98
2023-05-23T04:22:45.296Z,19.90
2023-05-23T04:25:12.431Z,18.02
2023-05-23T04:27:40.602Z,21.88
2023-05-23T04:30:09.811Z,17.05
2023-05-23T04:32:36.795Z,17.65
2023-05-23T04:35:04.336Z,17.08
2023-05-23T04:37:32.896Z,19.70
2023-05-23T04:40:01.144Z,19.40
2023-05-23T04:42:29.196Z,20.40
2023-05-23T04:44:58.181Z,20.15
2023-05-23T04:47:27.918Z,24.00
2023-05-23T04:49:55.656Z,21.65
2023-05-23T04:52:22.425Z,20.67
2023-05-23T04:54:49.647Z,20.58
2023-05-23T04:57:17.005Z,23.48
2023-05-23T04:59:43.832Z,20.83
2023-05-23T05:02:10.589Z,22.02
2023-05-23T05:04:37.431Z,22.17
2023-05-23T05:07:04.506Z,26.15
2023-05-23T05:09:31.951Z,24.63
2023-05-23T05:11:59.452Z,23.50
2023-05-23T05:14:26.957Z,19.83
2023-05-23T05:16:54.765Z,23.88
2023-05-23T05:19:25.185Z,21.75
2023-05-23T05:21:52.419Z,24.48
2023-05-23T05:24:20.994Z,21.30
2023-05-23T05:26:48.703Z,21.08
2023-05-23T05:29:15.999Z,20.88
2023-05-23T05:31:45.154Z,20.02
2023-05-23T05:34:12.774Z,28.10
2023-05-23T05:36:45.756Z,23.77
2023-05-23T05:39:13.686Z,25.50
2023-05-23T05:41:40.615Z,22.45
2023-05-23T05:44:08.190Z,25.83
2023-05-23T05:46:34.951Z,21.25
2023-05-23T05:49:01.680Z,20.83
2023-05-23T05:51:28.690Z,19.55
2023-05-23T05:53:55.390Z,19.95
2023-05-23T05:56:22.563Z,18.77
2023-05-23T05:58:49.451Z,19.75
2023-05-23T06:01:16.173Z,22.60
2023-05-23T06:03:43.410Z,26.63
2023-05-23T06:06:10.411Z,22.00
2023-05-23T06:08:37.139Z,19.88
2023-05-23T06:11:03.789Z,22.58
2023-05-23T06:13:30.603Z,22.67
2023-05-23T06:15:58.377Z,20.45
2023-05-23T06:18:25.269Z,19.83
2023-05-23T06:20:51.928Z,24.50
2023-05-23T06:23:18.563Z,23.17
2023-05-23T06:25:45.332Z,22.52
2023-05-23T06:28:12.086Z,24.10
2023-05-23T06:30:39.089Z,23.80
2023-05-23T06:33:06.187Z,27.15
2023-05-23T06:35:32.851Z,24.13
2023-05-23T06:37:59.468Z,24.48
2023-05-23T06:40:26.375Z,23.25
2023-05-23T06:42:53.017Z,22.15
2023-05-23T06:45:19.816Z,21.83
2023-05-23T06:47:48.173Z,22.10
2023-05-23T06:50:15.012Z,20.90
2023-05-23T06:52:42.906Z,22.25
2023-05-23T06:55:10.052Z,22.38
2023-05-23T06:57:36.662Z,24.70
2023-05-23T07:00:03.826Z,26.75
2023-05-23T07:02:30.599Z,25.00
2023-05-23T07:04:57.285Z,18.55
2023-05-23T07:07:24.008Z,21.40
2023-05-23T07:09:50.857Z,22.17
2023-05-23T07:12:17.545Z,20.05
2023-05-23T07:14:44.245Z,21.38
2023-05-23T07:17:11.056Z,23.45
2023-05-23T07:19:37.984Z,22.63
2023-05-23T07:22:07.890Z,20.75
2023-05-23T07:24:34.859Z,22.27
2023-05-23T07:27:01.590Z,23.08
2023-05-23T07:29:28.266Z,22.15
2023-05-23T07:31:55.234Z,30.08
2023-05-23T07:34:21.901Z,19.15
2023-05-23T07:36:50.234Z,22.00
2023-05-23T07:39:21.878Z,24.05
2023-05-23T07:41:50.062Z,27.42
2023-05-23T07:44:18.503Z,29.70
2023-05-23T07:46:47.957Z,30.67
2023-05-23T07:49:14.714Z,28.45
2023-05-23T07:51:44.807Z,26.27
2023-05-23T07:54:11.487Z,24.58
2023-05-23T07:56:39.393Z,27.60
2023-05-23T07:59:06.349Z,28.85
2023-05-23T08:01:33.106Z,26.58
2023-05-23T08:03:59.933Z,27.60
2023-05-23T08:06:26.874Z,30.42
2023-05-23T08:08:53.576Z,25.77
2023-05-23T08:11:20.339Z,32.05
2023-05-23T08:13:47.148Z,24.63
2023-05-23T08:16:13.976Z,26.30
2023-05-23T08:18:41.044Z,26.73
2023-05-23T08:21:07.915Z,26.20
2023-05-23T08:23:34.524Z,31.55
2023-05-23T08:26:01.244Z,28.15
2023-05-23T08:28:27.949Z,22.52
2023-05-23T08:30:56.999Z,26.23
2023-05-23T08:33:23.730Z,26.40
2023-05-23T08:35:50.565Z,28.55
2023-05-23T08:38:18.194Z,26.95
2023-05-23T08:40:49.552Z,28.52
2023-05-23T08:43:16.698Z,34.20
2023-05-23T08:45:43.543Z,26.55
2023-05-23T08:48:11.725Z,25.23
2023-05-23T08:50:38.617Z,26.17
2023-05-23T08:53:08.530Z,34.03
2023-05-23T08:55:35.457Z,28.13
2023-05-23T08:58:03.499Z,24.00
2023-05-23T09:00:30.209Z,30.00
2023-05-23T09:02:57.778Z,29.60
2023-05-23T09:05:25.033Z,32.75
2023-05-23T09:07:52.220Z,26.58
2023-05-23T09:10:20.177Z,28.08
2023-05-23T09:12:47.344Z,24.67
2023-05-23T09:15:14.783Z,23.70
2023-05-23T09:17:41.734Z,32.22
2023-05-23T09:20:14.136Z,27.05
2023-05-23T09:22:41.168Z,24.40
2023-05-23T09:25:08.192Z,24.60
2023-05-23T09:27:35.326Z,32.50
2023-05-23T09:30:10.622Z,29.27
2023-05-23T09:32:37.446Z,32.70
2023-05-23T09:35:05.525Z,28.00
2023-05-23T09:37:36.549Z,27.38
2023-05-23T09:40:10.079Z,26.90
2023-05-23T09:42:41.457Z,30.00
2023-05-23T09:45:08.614Z,26.33
2023-05-23T09:47:35.378Z,31.20
2023-05-23T09:50:02.178Z,29.92
2023-05-23T09:52:38.743Z,31.67
2023-05-23T09:55:06.625Z,36.38
2023-05-23T09:57:37.542Z,30.42
2023-05-23T10:00:06.936Z,31.55
2023-05-23T10:02:58.463Z,30.40
2023-05-23T10:05:46.698Z,30.27
2023-05-23T10:08:27.026Z,33.05
2023-05-23T10:11:16.897Z,31.25
2023-05-23T10:13:44.682Z,28.42
2023-05-23T10:16:18.561Z,33.78
2023-05-23T10:18:45.430Z,29.02
2023-05-23T10:21:12.655Z,33.35
2023-05-23T10:23:39.392Z,27.65
2023-05-23T10:26:06.154Z,30.63
2023-05-23T10:28:33.026Z,32.70
2023-05-23T10:31:00.045Z,37.78
2023-05-23T10:35:57.621Z,29.70
2023-05-23T10:38:46.636Z,31.30
2023-05-23T10:41:18.884Z,31.45
2023-05-23T10:44:25.449Z,27.83
2023-05-23T10:46:54.311Z,33.97
2023-05-23T10:49:21.585Z,24.08
2023-05-23T10:51:51.347Z,24.65
2023-05-23T10:54:19.745Z,27.15
2023-05-23T10:56:46.605Z,26.70
2023-05-23T10:59:21.902Z,18.67
2023-05-23T11:01:51.938Z,27.65
2023-05-23T11:04:26.539Z,20.75
2023-05-23T11:06:54.954Z,24.13
2023-05-23T11:09:22.208Z,26.02
2023-05-23T11:20:06.835Z,23.30
2023-05-23T11:22:34.407Z,19.02
2023-05-23T11:25:02.089Z,21.83
2023-05-23T11:27:34.817Z,15.85
2023-05-23T11:30:10.422Z,18.88
2023-05-23T11:32:37.428Z,16.90
2023-05-23T11:35:06.910Z,20.70
2023-05-23T11:37:33.744Z,17.08
2023-05-23T11:40:02.247Z,21.35
2023-05-23T11:42:29.054Z,16.88
2023-05-23T11:44:55.954Z,21.42
2023-05-23T11:47:22.784Z,15.75
2023-05-23T11:49:49.593Z,17.70
2023-05-23T11:52:16.660Z,17.80
2023-05-23T11:54:43.461Z,16.35
2023-05-23T11:57:10.801Z,14.60
2023-05-23T11:59:37.554Z,16.13
2023-05-23T12:02:07.926Z,16.67
2023-05-23T12:04:36.742Z,18.73
2023-05-23T12:07:06.234Z,24.33
2023-05-23T12:09:33.461Z,22.48
2023-05-23T12:12:00.185Z,20.63
2023-05-23T12:14:28.930Z,18.95
2023-05-23T12:16:55.593Z,18.05
2023-05-23T12:19:22.358Z,20.23
2023-05-23T12:21:49.444Z,19.40
2023-05-23T12:24:20.318Z,18.13
2023-05-23T12:26:48.390Z,18.65
2023-05-23T12:29:15.233Z,17.38
2023-05-23T12:31:41.994Z,15.23
2023-05-23T12:34:08.805Z,15.80
2023-05-23T12:36:47.999Z,15.40
2023-05-23T12:39:16.038Z,21.50
2023-05-23T12:41:43.785Z,18.15
2023-05-23T12:44:10.713Z,16.05
2023-05-23T12:46:37.519Z,16.38
2023-05-23T12:49:04.212Z,18.63
2023-05-23T12:51:31.857Z,18.88
2023-05-23T12:53:59.125Z,16.23
2023-05-23T12:56:26.547Z,18.42
2023-05-23T12:58:54.277Z,14.50
2023-05-23T13:01:21.134Z,19.95
2023-05-23T13:03:47.917Z,19.95
2023-05-23T13:06:14.782Z,16.20
2023-05-23T13:08:41.645Z,17.05
2023-05-23T13:11:08.880Z,17.63
2023-05-23T13:13:35.527Z,18.10
2023-05-23T13:16:02.276Z,13.05
2023-05-23T13:18:29.007Z,14.35
2023-05-23T13:20:55.833Z,15.60
2023-05-23T13:23:22.538Z,12.95
2023-05-23T13:25:51.289Z,17.10
2023-05-23T13:28:18.176Z,14.15
2023-05-23T13:30:47.065Z,14.77
2023-05-23T13:33:14.241Z,16.05
2023-05-23T13:35:41.164Z,16.00
2023-05-23T13:38:08.047Z,13.27
2023-05-23T13:40:34.752Z,15.73
2023-05-23T13:43:01.506Z,14.45
2023-05-23T13:45:28.286Z,16.33
2023-05-23T13:47:55.056Z,13.93
2023-05-23T13:50:21.843Z,12.27
2023-05-23T13:52:49.624Z,16.77
2023-05-23T13:55:17.388Z,13.70
2023-05-23T13:57:44.783Z,16.40
2023-05-23T14:00:12.330Z,13.82
2023-05-23T14:02:39.074Z,12.88
2023-05-23T14:05:07.243Z,15.25
2023-05-23T14:07:33.929Z,16.35
2023-05-23T14:10:00.890Z,14.68
2023-05-23T14:12:27.672Z,15.50
2023-05-23T14:14:54.386Z,14.52
2023-05-23T14:17:21.110Z,12.82
2023-05-23T14:19:48.075Z,12.30
2023-05-23T14:22:14.918Z,13.25
2023-05-23T14:24:42.502Z,12.55
2023-05-23T14:27:11.067Z,12.95
2023-05-23T14:29:38.553Z,12.50
2023-05-23T14:32:05.699Z,15.82
2023-05-23T14:34:32.497Z,12.68
2023-05-23T14:36:59.123Z,13.63
2023-05-23T14:39:25.832Z,12.25
2023-05-23T14:41:52.542Z,13.15
2023-05-23T14:44:19.589Z,16.65
2023-05-23T14:46:49.533Z,14.02
2023-05-23T14:49:17.265Z,14.70
2023-05-23T14:51:50.275Z,15.95
2023-05-23T14:54:18.008Z,16.63
2023-05-23T14:56:44.806Z,13.02
2023-05-23T14:59:11.545Z,11.30
2023-05-23T15:01:40.125Z,12.63
2023-05-23T15:04:09.372Z,12.05
2023-05-23T15:06:38.926Z,12.93
2023-05-23T15:09:06.048Z,11.48
2023-05-23T15:11:34.759Z,15.85
2023-05-23T15:14:01.471Z,21.13
2023-05-23T15:16:32.517Z,16.73
2023-05-23T15:18:59.788Z,11.90
2023-05-23T15:21:26.728Z,11.02
2023-05-23T15:23:53.608Z,12.45
2023-05-23T15:26:20.381Z,13.57
2023-05-23T15:28:47.479Z,11.35
2023-05-23T15:31:14.132Z,14.52
2023-05-23T15:33:41.001Z,11.70
2023-05-23T15:36:08.069Z,14.73
2023-05-23T15:38:34.763Z,14.73
2023-05-23T15:41:02.316Z,12.77
2023-05-23T15:43:28.933Z,13.05
2023-05-23T15:45:55.833Z,13.90
2023-05-23T15:48:22.515Z,15.07
2023-05-23T15:50:49.252Z,14.15
2023-05-23T15:53:15.948Z,11.27
2023-05-23T15:55:43.107Z,12.00
2023-05-23T15:58:10.804Z,15.25
2023-05-23T16:00:37.548Z,11.45
2023-05-23T16:03:04.423Z,16.35
2023-05-23T16:05:32.258Z,12.98
2023-05-23T16:07:59.071Z,10.05
2023-05-23T16:10:26.180Z,12.02
2023-05-23T16:12:52.840Z,10.13
2023-05-23T16:15:19.612Z,11.05
2023-05-23T16:17:46.359Z,10.70
2023-05-23T16:20:13.074Z,9.32
2023-05-23T16:22:40.563Z,10.82
2023-05-23T16:25:09.115Z,10.13
2023-05-23T16:27:35.831Z,10.02
2023-05-23T16:30:02.633Z,13.10
2023-05-23T16:32:29.316Z,8.88
2023-05-23T16:34:56.313Z,9.35
2023-05-23T16:37:23.382Z,11.27
2023-05-23T16:39:50.114Z,10.80
2023-05-23T16:42:17.661Z,9.07
2023-05-23T16:44:45.294Z,10.00
2023-05-23T16:47:11.982Z,10.68
2023-05-23T16:49:38.746Z,8.98
2023-05-23T16:52:05.766Z,7.03
2023-05-23T16:54:32.526Z,7.05
2023-05-23T16:57:01.821Z,7.72
2023-05-23T16:59:29.727Z,6.85
2023-05-23T17:01:56.871Z,6.63
2023-05-23T17:04:23.939Z,10.10
2023-05-23T17:06:50.901Z,12.30
2023-05-23T17:09:18.364Z,6.10
2023-05-23T17:11:45.341Z,5.72
2023-05-23T17:14:12.715Z,5.88
2023-05-23T17:16:39.406Z,5.93
2023-05-23T17:19:06.354Z,6.38
2023-05-23T17:21:33.485Z,5.57
2023-05-23T17:24:00.305Z,6.35
2023-05-23T17:26:27.288Z,11.80
2023-05-23T17:28:54.040Z,8.13
2023-05-23T17:31:21.388Z,6.30
2023-05-23T17:33:48.094Z,5.45
2023-05-23T17:36:14.713Z,5.32
2023-05-23T17:38:41.891Z,5.32
2023-05-23T17:41:08.594Z,7.57
2023-05-23T17:43:35.310Z,7.70
2023-05-23T17:46:01.968Z,6.47
2023-05-23T17:48:45.727Z,7.03
2023-05-23T17:51:13.582Z,6.95
2023-05-23T17:53:41.809Z,6.93
2023-05-23T17:56:09.211Z,6.03
2023-05-23T17:58:37.573Z,9.27
2023-05-23T18:01:04.952Z,6.53
2023-05-23T18:03:32.155Z,5.20
2023-05-23T18:05:58.864Z,7.20
2023-05-23T18:08:25.585Z,6.05
2023-05-23T18:10:52.507Z,5.50
2023-05-23T18:13:19.418Z,5.50
2023-05-23T18:15:46.084Z,6.70
2023-05-23T18:18:13.027Z,5.63
2023-05-23T18:20:40.187Z,6.00
2023-05-23T18:23:07.434Z,6.15
2023-05-23T18:25:34.294Z,9.68
2023-05-23T18:28:01.539Z,7.75
2023-05-23T18:30:28.320Z,5.43
2023-05-23T18:32:55.639Z,5.53
2023-05-23T18:35:22.438Z,5.63
2023-05-23T18:37:49.129Z,6.68
2023-05-23T18:40:15.995Z,5.13
2023-05-23T18:42:42.650Z,4.88
2023-05-23T18:45:10.023Z,4.65
2023-05-23T18:47:36.714Z,7.50
2023-05-23T18:50:03.622Z,5.10
2023-05-23T18:52:33.381Z,5.20
2023-05-23T18:55:00.088Z,5.15
2023-05-23T18:57:26.823Z,6.20
2023-05-23T18:59:53.450Z,6.70
2023-05-23T19:02:20.363Z,7.07
2023-05-23T19:04:47.611Z,5.00
2023-05-23T19:07:14.357Z,5.50
2023-05-23T19:09:40.995Z,6.13
2023-05-23T19:12:07.766Z,5.22
2023-05-23T19:14:34.449Z,5.35
2023-05-23T19:17:05.553Z,5.80
2023-05-23T19:19:34.177Z,5.40
2023-05-23T19:22:04.171Z,5.35
2023-05-23T19:24:30.913Z,6.88
2023-05-23T19:26:57.561Z,6.03
2023-05-23T19:29:24.214Z,5.85
2023-05-23T19:31:51.031Z,4.50
2023-05-23T19:34:18.093Z,6.30
2023-05-23T19:36:44.795Z,5.22
2023-05-23T19:39:12.486Z,6.00
2023-05-23T19:41:40.271Z,6.15
2023-05-23T19:44:07.044Z,6.15
2023-05-23T19:46:33.721Z,6.78
2023-05-23T19:49:00.857Z,5.82
2023-05-23T19:51:27.526Z,5.25
2023-05-23T19:53:54.647Z,6.47
2023-05-23T19:56:22.810Z,5.57
2023-05-23T19:58:49.503Z,3.45
2023-05-23T20:01:16.337Z,5.18
2023-05-23T20:03:43.448Z,3.90
2023-05-23T20:06:10.346Z,3.88
2023-05-23T20:08:37.066Z,3.80
2023-05-23T20:11:03.730Z,6.40
2023-05-23T20:13:30.418Z,9.05
2023-05-23T20:15:57.169Z,5.75
2023-05-23T20:18:24.020Z,4.30
2023-05-23T20:20:50.792Z,7.18
2023-05-23T20:23:17.433Z,4.05
2023-05-23T20:25:44.186Z,5.03
2023-05-23T20:28:11.016Z,6.00
2023-05-23T20:30:37.660Z,9.32
2023-05-23T20:33:04.528Z,7.88
2023-05-23T20:35:31.277Z,4.43
2023-05-23T20:37:58.432Z,4.30
2023-05-23T20:40:25.621Z,4.28
2023-05-23T20:42:52.254Z,4.75
2023-05-23T20:45:19.096Z,7.20
2023-05-23T20:47:46.288Z,5.05
2023-05-23T20:50:13.000Z,4.57
2023-05-23T20:52:41.317Z,5.13
2023-05-23T20:55:08.776Z,6.25
2023-05-23T20:57:38.530Z,4.75
2023-05-23T21:00:10.911Z,5.07
2023-05-23T21:02:38.330Z,5.20
2023-05-23T21:05:06.387Z,4.65
2023-05-23T21:07:33.001Z,5.60
2023-05-23T21:09:59.675Z,4.57
2023-05-23T21:12:26.589Z,7.32
2023-05-23T21:15:01.586Z,5.40
2023-05-23T21:17:35.180Z,4.45
2023-05-23T21:20:02.235Z,6.72
2023-05-23T21:22:31.731Z,4.43
2023-05-23T21:24:58.442Z,8.82
2023-05-23T21:27:25.154Z,5.72
2023-05-23T21:29:52.000Z,11.38
2023-05-23T21:32:19.075Z,6.38
2023-05-23T21:34:45.826Z,4.57
2023-05-23T21:37:12.499Z,5.50
2023-05-23T21:39:50.762Z,6.93
2023-05-23T21:42:19.171Z,3.75
2023-05-23T21:44:46.950Z,4.75
2023-05-23T21:47:13.627Z,4.78
2023-05-23T21:49:40.711Z,4.88
2023-05-23T21:52:07.390Z,6.15
2023-05-23T21:54:34.132Z,7.45
2023-05-23T21:57:00.946Z,5.32
2023-05-23T21:59:27.573Z,5.18
2023-05-23T22:01:54.301Z,5.60
2023-05-23T22:04:21.182Z,6.07
2023-05-23T22:06:47.996Z,7.43
2023-05-23T22:09:15.279Z,5.63
2023-05-23T22:11:42.359Z,7.50
2023-05-23T22:14:09.102Z,5.93
2023-05-23T22:16:42.812Z,4.45
2023-05-23T22:19:10.359Z,5.45
2023-05-23T22:21:37.403Z,6.05
2023-05-23T22:24:04.432Z,5.43
2023-05-23T22:26:31.102Z,4.60
2023-05-23T22:28:57.948Z,5.22
2023-05-23T22:31:24.882Z,5.88
2023-05-23T22:33:51.687Z,8.25
2023-05-23T22:36:18.391Z,7.35
2023-05-23T22:38:45.250Z,5.97
2023-05-23T22:41:12.082Z,6.18
2023-05-23T22:43:38.944Z,5.40
2023-05-23T22:46:05.949Z,6.20
2023-05-23T22:48:34.249Z,4.90
2023-05-23T22:51:01.939Z,8.35
2023-05-23T22:53:29.278Z,6.47
2023-05-23T22:55:55.989Z,7.13
2023-05-23T22:58:22.716Z,6.35
2023-05-23T23:00:49.435Z,5.82
2023-05-23T23:03:16.422Z,5.68
2023-05-23T23:05:44.173Z,5.65
2023-05-23T23:08:10.880Z,7.20
2023-05-23T23:10:37.542Z,6.70
2023-05-23T23:13:04.229Z,6.38
2023-05-23T23:15:33.636Z,4.95
2023-05-23T23:18:00.417Z,5.85
2023-05-23T23:20:27.089Z,5.63
2023-05-23T23:22:53.894Z,4.68
2023-05-23T23:25:20.683Z,6.53
2023-05-23T23:27:47.321Z,7.00
2023-05-23T23:30:14.064Z,4.72
2023-05-23T23:32:40.913Z,6.82
2023-05-23T23:35:07.809Z,5.68
2023-05-23T23:37:34.492Z,5.88
2023-05-23T23:40:01.136Z,5.80
2023-05-23T23:42:27.777Z,5.45
2023-05-23T23:44:54.550Z,6.28
2023-05-23T23:47:21.226Z,4.68
2023-05-23T23:49:47.881Z,4.57
2023-05-23T23:52:14.898Z,4.65
2023-05-23T23:54:41.683Z,4.50
2023-05-23T23:57:13.529Z,4.70
2023-05-23T23:59:41.435Z,4.35
